sensor_id;sensor_type;location;lat;lon;timestamp;pressure;altitude;pressure_sealevel;temperature;humidity
75447;BME280;64024;55.820;37.574;2023-04-09T00:01:48;99823.59;;;19.09;32.97
75447;BME280;64024;55.820;37.574;2023-04-09T00:04:13;99831.09;;;19.07;33.00
75447;BME280;64024;55.820;37.574;2023-04-09T00:06:39;99824.06;;;19.06;33.09
75447;BME280;64024;55.820;37.574;2023-04-09T00:09:05;99827.03;;;19.05;33.01
75447;BME280;64024;55.820;37.574;2023-04-09T00:11:31;99831.84;;;19.03;33.15
75447;BME280;64024;55.820;37.574;2023-04-09T00:13:57;99831.03;;;19.02;32.93
75447;BME280;64024;55.820;37.574;2023-04-09T00:16:23;99834.78;;;19.01;33.19
75447;BME280;64024;55.820;37.574;2023-04-09T00:18:49;99838.56;;;19.00;33.18
75447;BME280;64024;55.820;37.574;2023-04-09T00:21:16;99828.81;;;18.99;33.15
75447;BME280;64024;55.820;37.574;2023-04-09T00:23:42;99830.97;;;18.97;33.34
75447;BME280;64024;55.820;37.574;2023-04-09T00:26:08;99833.91;;;18.96;33.33
75447;BME280;64024;55.820;37.574;2023-04-09T00:28:34;99830.63;;;18.94;33.57
75447;BME280;64024;55.820;37.574;2023-04-09T00:31:01;99832.78;;;18.92;33.43
75447;BME280;64024;55.820;37.574;2023-04-09T00:33:26;99829.50;;;18.90;33.39
75447;BME280;64024;55.820;37.574;2023-04-09T00:35:52;99827.88;;;18.88;33.45
75447;BME280;64024;55.820;37.574;2023-04-09T00:38:18;99832.47;;;18.88;33.46
75447;BME280;64024;55.820;37.574;2023-04-09T00:40:48;99829.75;;;18.88;33.53
75447;BME280;64024;55.820;37.574;2023-04-09T00:43:15;99837.03;;;18.87;33.61
75447;BME280;64024;55.820;37.574;2023-04-09T00:45:41;99833.75;;;18.85;33.51
75447;BME280;64024;55.820;37.574;2023-04-09T00:48:06;99830.25;;;18.85;33.55
75447;BME280;64024;55.820;37.574;2023-04-09T00:50:33;99830.50;;;18.83;33.33
75447;BME280;64024;55.820;37.574;2023-04-09T00:52:58;99828.84;;;18.82;33.20
75447;BME280;64024;55.820;37.574;2023-04-09T00:55:24;99823.47;;;18.82;33.18
75447;BME280;64024;55.820;37.574;2023-04-09T00:57:51;99821.84;;;18.81;33.25
75447;BME280;64024;55.820;37.574;2023-04-09T01:00:17;99818.59;;;18.79;33.18
75447;BME280;64024;55.820;37.574;2023-04-09T01:02:42;99821.31;;;18.79;33.26
75447;BME280;64024;55.820;37.574;2023-04-09T01:05:09;99818.03;;;18.77;33.42
75447;BME280;64024;55.820;37.574;2023-04-09T01:10:37;99822.59;;;18.77;33.22
75447;BME280;64024;55.820;37.574;2023-04-09T01:15:58;99825.44;;;18.70;33.04
75447;BME280;64024;55.820;37.574;2023-04-09T01:18:59;99821.34;;;18.68;33.24
75447;BME280;64024;55.820;37.574;2023-04-09T01:21:27;99826.97;;;18.66;33.12
75447;BME280;64024;55.820;37.574;2023-04-09T01:27:03;99832.06;;;18.62;33.26
75447;BME280;64024;55.820;37.574;2023-04-09T01:29:32;99829.25;;;18.57;33.15
75447;BME280;64024;55.820;37.574;2023-04-09T01:32:01;99825.22;;;18.55;33.16
75447;BME280;64024;55.820;37.574;2023-04-09T01:34:28;99832.69;;;18.53;33.39
75447;BME280;64024;55.820;37.574;2023-04-09T01:36:58;99829.69;;;18.49;33.35
75447;BME280;64024;55.820;37.574;2023-04-09T01:39:25;99829.94;;;18.48;33.34
75447;BME280;64024;55.820;37.574;2023-04-09T01:41:52;99824.81;;;18.46;33.46
75447;BME280;64024;55.820;37.574;2023-04-09T01:44:18;99829.38;;;18.46;33.50
75447;BME280;64024;55.820;37.574;2023-04-09T01:46:48;99826.91;;;18.44;33.54
75447;BME280;64024;55.820;37.574;2023-04-09T01:49:15;99827.97;;;18.43;33.50
75447;BME280;64024;55.820;37.574;2023-04-09T01:51:42;99828.25;;;18.42;33.66
75447;BME280;64024;55.820;37.574;2023-04-09T01:54:08;99826.84;;;18.39;33.57
75447;BME280;64024;55.820;37.574;2023-04-09T01:56:45;99828.72;;;18.38;33.57
75447;BME280;64024;55.820;37.574;2023-04-09T01:59:11;99838.91;;;18.36;33.54
75447;BME280;64024;55.820;37.574;2023-04-09T02:01:52;99830.81;;;18.36;33.64
75447;BME280;64024;55.820;37.574;2023-04-09T02:04:23;99833.78;;;18.35;33.53
75447;BME280;64024;55.820;37.574;2023-04-09T02:09:30;99828.31;;;18.30;33.63
75447;BME280;64024;55.820;37.574;2023-04-09T02:12:02;99830.41;;;18.28;33.39
75447;BME280;64024;55.820;37.574;2023-04-09T02:14:30;99825.28;;;18.26;33.55
75447;BME280;64024;55.820;37.574;2023-04-09T02:16:58;99826.59;;;18.24;33.54
75447;BME280;64024;55.820;37.574;2023-04-09T02:19:24;99828.88;;;18.32;33.54
75447;BME280;64024;55.820;37.574;2023-04-09T02:21:49;99827.16;;;18.26;33.48
75447;BME280;64024;55.820;37.574;2023-04-09T02:24:15;99825.22;;;18.21;33.46
75447;BME280;64024;55.820;37.574;2023-04-09T02:26:41;99825.94;;;18.17;33.63
75447;BME280;64024;55.820;37.574;2023-04-09T02:29:07;99830.75;;;18.14;33.81
75447;BME280;64024;55.820;37.574;2023-04-09T02:31:32;99828.31;;;18.13;33.65
75447;BME280;64024;55.820;37.574;2023-04-09T02:33:58;99822.34;;;18.11;33.82
75447;BME280;64024;55.820;37.574;2023-04-09T02:36:24;99828.78;;;18.10;33.82
75447;BME280;64024;55.820;37.574;2023-04-09T02:38:50;99829.03;;;18.08;34.13
75447;BME280;64024;55.820;37.574;2023-04-09T02:41:16;99830.06;;;18.07;33.83
75447;BME280;64024;55.820;37.574;2023-04-09T02:43:42;99828.44;;;18.06;33.87
75447;BME280;64024;55.820;37.574;2023-04-09T02:46:08;99827.88;;;18.04;33.82
75447;BME280;64024;55.820;37.574;2023-04-09T02:48:33;99820.03;;;18.03;33.68
75447;BME280;64024;55.820;37.574;2023-04-09T02:50:59;99826.75;;;18.00;33.63
75447;BME280;64024;55.820;37.574;2023-04-09T02:53:25;99822.41;;;17.99;33.81
75447;BME280;64024;55.820;37.574;2023-04-09T02:55:51;99824.53;;;17.97;33.74
75447;BME280;64024;55.820;37.574;2023-04-09T02:58:17;99822.31;;;17.94;33.79
75447;BME280;64024;55.820;37.574;2023-04-09T03:00:43;99829.81;;;17.92;33.74
75447;BME280;64024;55.820;37.574;2023-04-09T03:03:09;99827.34;;;17.91;34.10
75447;BME280;64024;55.820;37.574;2023-04-09T03:05:34;99833.78;;;17.89;34.07
75447;BME280;64024;55.820;37.574;2023-04-09T03:08:01;99825.97;;;17.88;34.04
75447;BME280;64024;55.820;37.574;2023-04-09T03:10:26;99831.34;;;17.88;34.14
75447;BME280;64024;55.820;37.574;2023-04-09T03:12:52;99832.97;;;17.89;34.29
75447;BME280;64024;55.820;37.574;2023-04-09T03:15:18;99831.09;;;17.89;34.57
75447;BME280;64024;55.820;37.574;2023-04-09T03:17:44;99836.81;;;17.93;34.92
75447;BME280;64024;55.820;37.574;2023-04-09T03:20:09;99829.91;;;17.97;35.18
75447;BME280;64024;55.820;37.574;2023-04-09T03:22:36;99829.44;;;18.00;35.41
75447;BME280;64024;55.820;37.574;2023-04-09T03:25:02;99825.19;;;18.04;35.85
75447;BME280;64024;55.820;37.574;2023-04-09T03:27:28;99827.97;;;18.09;36.20
75447;BME280;64024;55.820;37.574;2023-04-09T03:29:55;99824.28;;;18.16;36.60
75447;BME280;64024;55.820;37.574;2023-04-09T03:32:20;99824.41;;;18.21;36.61
75447;BME280;64024;55.820;37.574;2023-04-09T03:34:46;99819.91;;;18.26;37.03
75447;BME280;64024;55.820;37.574;2023-04-09T03:37:12;99831.56;;;18.32;37.09
75447;BME280;64024;55.820;37.574;2023-04-09T03:39:38;99820.06;;;18.36;37.32
75447;BME280;64024;55.820;37.574;2023-04-09T03:42:03;99831.75;;;18.42;37.37
75447;BME280;64024;55.820;37.574;2023-04-09T03:44:29;99827.00;;;18.49;37.53
75447;BME280;64024;55.820;37.574;2023-04-09T03:46:55;99822.25;;;18.56;37.65
75447;BME280;64024;55.820;37.574;2023-04-09T03:49:21;99825.03;;;18.61;37.49
75447;BME280;64024;55.820;37.574;2023-04-09T03:51:46;99825.69;;;18.69;37.56
75447;BME280;64024;55.820;37.574;2023-04-09T03:54:12;99823.91;;;18.74;37.73
75447;BME280;64024;55.820;37.574;2023-04-09T03:56:38;99829.94;;;18.81;37.77
75447;BME280;64024;55.820;37.574;2023-04-09T03:59:04;99824.13;;;18.90;37.88
75447;BME280;64024;55.820;37.574;2023-04-09T04:01:29;99828.53;;;18.96;37.82
75447;BME280;64024;55.820;37.574;2023-04-09T04:03:55;99824.56;;;19.03;37.80
75447;BME280;64024;55.820;37.574;2023-04-09T04:06:21;99819.81;;;19.10;37.96
75447;BME280;64024;55.820;37.574;2023-04-09T04:08:46;99822.09;;;19.19;37.99
75447;BME280;64024;55.820;37.574;2023-04-09T04:11:12;99823.53;;;19.26;37.89
75447;BME280;64024;55.820;37.574;2023-04-09T04:13:37;99820.88;;;19.31;37.99
75447;BME280;64024;55.820;37.574;2023-04-09T04:16:07;99822.34;;;19.39;37.87
75447;BME280;64024;55.820;37.574;2023-04-09T04:18:34;99818.66;;;19.45;37.90
75447;BME280;64024;55.820;37.574;2023-04-09T04:21:00;99820.63;;;19.55;37.61
75447;BME280;64024;55.820;37.574;2023-04-09T04:23:26;99817.75;;;19.61;37.65
75447;BME280;64024;55.820;37.574;2023-04-09T04:25:52;99812.19;;;19.68;37.63
75447;BME280;64024;55.820;37.574;2023-04-09T04:28:17;99810.91;;;19.76;37.34
75447;BME280;64024;55.820;37.574;2023-04-09T04:30:43;99819.09;;;19.86;37.55
75447;BME280;64024;55.820;37.574;2023-04-09T04:33:09;99821.59;;;19.93;37.20
75447;BME280;64024;55.820;37.574;2023-04-09T04:35:35;99818.94;;;19.98;37.30
75447;BME280;64024;55.820;37.574;2023-04-09T04:38:01;99822.53;;;20.03;37.24
75447;BME280;64024;55.820;37.574;2023-04-09T04:40:26;99812.31;;;20.10;37.13
75447;BME280;64024;55.820;37.574;2023-04-09T04:42:52;99815.88;;;20.16;37.03
75447;BME280;64024;55.820;37.574;2023-04-09T04:45:18;99815.66;;;20.23;37.05
75447;BME280;64024;55.820;37.574;2023-04-09T04:47:44;99816.75;;;20.27;36.89
75447;BME280;64024;55.820;37.574;2023-04-09T04:50:09;99814.94;;;20.32;37.18
75447;BME280;64024;55.820;37.574;2023-04-09T04:52:35;99815.78;;;20.38;36.92
75447;BME280;64024;55.820;37.574;2023-04-09T04:55:01;99815.81;;;20.43;36.80
75447;BME280;64024;55.820;37.574;2023-04-09T04:57:27;99815.03;;;20.48;36.85
75447;BME280;64024;55.820;37.574;2023-04-09T04:59:52;99816.75;;;20.54;36.87
75447;BME280;64024;55.820;37.574;2023-04-09T05:02:18;99814.88;;;20.59;36.79
75447;BME280;64024;55.820;37.574;2023-04-09T05:04:43;99817.63;;;20.65;37.02
75447;BME280;64024;55.820;37.574;2023-04-09T05:07:10;99823.88;;;20.70;37.06
75447;BME280;64024;55.820;37.574;2023-04-09T05:09:36;99817.69;;;20.75;37.00
75447;BME280;64024;55.820;37.574;2023-04-09T05:12:01;99830.16;;;20.81;36.96
75447;BME280;64024;55.820;37.574;2023-04-09T05:14:27;99823.16;;;20.85;36.95
75447;BME280;64024;55.820;37.574;2023-04-09T05:16:53;99824.25;;;20.89;36.88
75447;BME280;64024;55.820;37.574;2023-04-09T05:19:19;99819.16;;;20.93;36.91
75447;BME280;64024;55.820;37.574;2023-04-09T05:21:45;99829.16;;;20.97;36.75
75447;BME280;64024;55.820;37.574;2023-04-09T05:24:10;99824.06;;;21.01;36.86
75447;BME280;64024;55.820;37.574;2023-04-09T05:26:36;99823.53;;;21.04;36.73
75447;BME280;64024;55.820;37.574;2023-04-09T05:29:02;99825.72;;;21.07;36.58
75447;BME280;64024;55.820;37.574;2023-04-09T05:31:28;99831.38;;;21.10;36.74
75447;BME280;64024;55.820;37.574;2023-04-09T05:33:53;99827.34;;;21.13;36.84
75447;BME280;64024;55.820;37.574;2023-04-09T05:36:19;99822.25;;;21.17;36.72
75447;BME280;64024;55.820;37.574;2023-04-09T05:38:45;99824.66;;;21.18;36.84
75447;BME280;64024;55.820;37.574;2023-04-09T05:41:11;99830.38;;;21.22;36.90
75447;BME280;64024;55.820;37.574;2023-04-09T05:43:37;99827.38;;;21.23;36.74
75447;BME280;64024;55.820;37.574;2023-04-09T05:46:03;99825.25;;;21.25;36.81
75447;BME280;64024;55.820;37.574;2023-04-09T05:48:29;99830.13;;;21.28;36.74
75447;BME280;64024;55.820;37.574;2023-04-09T05:50:55;99831.47;;;21.31;36.53
75447;BME280;64024;55.820;37.574;2023-04-09T05:53:21;99843.69;;;21.33;36.71
75447;BME280;64024;55.820;37.574;2023-04-09T05:55:47;99837.78;;;21.37;36.54
75447;BME280;64024;55.820;37.574;2023-04-09T05:58:17;99846.72;;;21.42;36.73
75447;BME280;64024;55.820;37.574;2023-04-09T06:00:46;99845.09;;;21.46;36.53
75447;BME280;64024;55.820;37.574;2023-04-09T06:03:12;99848.09;;;21.50;36.51
75447;BME280;64024;55.820;37.574;2023-04-09T06:05:37;99852.19;;;21.52;36.48
75447;BME280;64024;55.820;37.574;2023-04-09T06:08:03;99848.09;;;21.55;36.52
75447;BME280;64024;55.820;37.574;2023-04-09T06:10:31;99850.81;;;21.55;36.76
75447;BME280;64024;55.820;37.574;2023-04-09T06:12:57;99848.41;;;21.58;36.63
75447;BME280;64024;55.820;37.574;2023-04-09T06:15:22;99846.50;;;21.59;36.48
75447;BME280;64024;55.820;37.574;2023-04-09T06:17:48;99847.88;;;21.62;36.39
75447;BME280;64024;55.820;37.574;2023-04-09T06:20:14;99844.59;;;21.65;36.46
75447;BME280;64024;55.820;37.574;2023-04-09T06:22:40;99844.38;;;21.66;36.56
75447;BME280;64024;55.820;37.574;2023-04-09T06:25:06;99850.31;;;21.68;36.52
75447;BME280;64024;55.820;37.574;2023-04-09T06:27:32;99856.28;;;21.70;36.41
75447;BME280;64024;55.820;37.574;2023-04-09T06:29:58;99849.50;;;21.73;36.26
75447;BME280;64024;55.820;37.574;2023-04-09T06:32:23;99852.78;;;21.75;36.50
75447;BME280;64024;55.820;37.574;2023-04-09T06:34:49;99851.44;;;21.77;36.50
75447;BME280;64024;55.820;37.574;2023-04-09T06:37:15;99857.38;;;21.79;36.46
75447;BME280;64024;55.820;37.574;2023-04-09T06:39:40;99857.09;;;21.81;36.44
75447;BME280;64024;55.820;37.574;2023-04-09T06:42:06;99854.16;;;21.82;36.30
75447;BME280;64024;55.820;37.574;2023-04-09T06:44:33;99854.69;;;21.84;36.33
75447;BME280;64024;55.820;37.574;2023-04-09T06:46:59;99856.84;;;21.88;36.44
75447;BME280;64024;55.820;37.574;2023-04-09T06:49:24;99855.53;;;21.90;36.33
75447;BME280;64024;55.820;37.574;2023-04-09T06:51:50;99856.34;;;21.91;36.26
75447;BME280;64024;55.820;37.574;2023-04-09T06:54:18;99858.75;;;21.92;36.40
75447;BME280;64024;55.820;37.574;2023-04-09T06:56:44;99853.91;;;21.94;36.26
75447;BME280;64024;55.820;37.574;2023-04-09T06:59:10;99859.84;;;21.96;36.28
75447;BME280;64024;55.820;37.574;2023-04-09T07:01:37;99855.81;;;21.99;36.25
75447;BME280;64024;55.820;37.574;2023-04-09T07:04:03;99860.13;;;22.00;36.33
75447;BME280;64024;55.820;37.574;2023-04-09T07:06:30;99861.50;;;22.02;36.34
75447;BME280;64024;55.820;37.574;2023-04-09T07:08:56;99863.94;;;22.04;36.10
75447;BME280;64024;55.820;37.574;2023-04-09T07:11:22;99871.78;;;22.05;36.15
75447;BME280;64024;55.820;37.574;2023-04-09T07:13:47;99871.25;;;22.08;36.15
75447;BME280;64024;55.820;37.574;2023-04-09T07:16:13;99872.63;;;22.11;36.06
75447;BME280;64024;55.820;37.574;2023-04-09T07:18:39;99863.97;;;22.14;36.28
75447;BME280;64024;55.820;37.574;2023-04-09T07:21:05;99863.72;;;22.16;36.10
75447;BME280;64024;55.820;37.574;2023-04-09T07:23:33;99866.13;;;22.17;36.18
75447;BME280;64024;55.820;37.574;2023-04-09T07:26:04;99866.41;;;22.21;36.32
75447;BME280;64024;55.820;37.574;2023-04-09T07:28:30;99863.44;;;22.22;36.14
75447;BME280;64024;55.820;37.574;2023-04-09T07:30:56;99858.28;;;22.26;36.33
75447;BME280;64024;55.820;37.574;2023-04-09T07:33:22;99859.91;;;22.27;36.28
75447;BME280;64024;55.820;37.574;2023-04-09T07:35:47;99852.88;;;22.31;36.07
75447;BME280;64024;55.820;37.574;2023-04-09T07:38:13;99867.78;;;22.33;35.94
75447;BME280;64024;55.820;37.574;2023-04-09T07:40:39;99862.63;;;22.37;35.68
75447;BME280;64024;55.820;37.574;2023-04-09T07:43:05;99872.13;;;22.40;34.92
75447;BME280;64024;55.820;37.574;2023-04-09T07:45:31;99870.50;;;22.44;34.64
75447;BME280;64024;55.820;37.574;2023-04-09T07:47:56;99870.75;;;22.47;33.98
75447;BME280;64024;55.820;37.574;2023-04-09T07:50:22;99873.47;;;22.47;33.82
75447;BME280;64024;55.820;37.574;2023-04-09T07:52:48;99874.81;;;22.50;33.36
75447;BME280;64024;55.820;37.574;2023-04-09T07:55:14;99867.25;;;22.52;33.46
75447;BME280;64024;55.820;37.574;2023-04-09T07:57:40;99870.50;;;22.54;32.97
75447;BME280;64024;55.820;37.574;2023-04-09T08:00:07;99860.47;;;22.54;32.64
75447;BME280;64024;55.820;37.574;2023-04-09T08:02:34;99872.09;;;22.55;32.83
75447;BME280;64024;55.820;37.574;2023-04-09T08:05:00;99871.03;;;22.56;32.46
75447;BME280;64024;55.820;37.574;2023-04-09T08:07:27;99875.63;;;22.55;32.21
75447;BME280;64024;55.820;37.574;2023-04-09T08:09:53;99864.53;;;22.57;32.46
75447;BME280;64024;55.820;37.574;2023-04-09T08:12:18;99875.38;;;22.57;32.18
75447;BME280;64024;55.820;37.574;2023-04-09T08:14:45;99867.25;;;22.57;31.89
75447;BME280;64024;55.820;37.574;2023-04-09T08:17:15;99864.78;;;22.55;31.72
75447;BME280;64024;55.820;37.574;2023-04-09T08:19:41;99858.56;;;22.55;31.83
75447;BME280;64024;55.820;37.574;2023-04-09T08:22:07;99866.16;;;22.53;31.62
75447;BME280;64024;55.820;37.574;2023-04-09T08:24:33;99854.25;;;22.54;31.69
75447;BME280;64024;55.820;37.574;2023-04-09T08:27:00;99857.22;;;22.52;31.52
75447;BME280;64024;55.820;37.574;2023-04-09T08:29:26;99851.81;;;22.52;31.38
75447;BME280;64024;55.820;37.574;2023-04-09T08:31:52;99843.69;;;22.52;31.47
75447;BME280;64024;55.820;37.574;2023-04-09T08:34:18;99847.19;;;22.53;31.29
75447;BME280;64024;55.820;37.574;2023-04-09T08:36:46;99853.44;;;22.53;31.34
75447;BME280;64024;55.820;37.574;2023-04-09T08:39:15;99844.50;;;22.53;31.34
75447;BME280;64024;55.820;37.574;2023-04-09T08:41:43;99843.69;;;22.52;31.21
75447;BME280;64024;55.820;37.574;2023-04-09T08:44:09;99844.50;;;22.53;31.06
75447;BME280;64024;55.820;37.574;2023-04-09T08:46:36;99854.53;;;22.52;31.01
75447;BME280;64024;55.820;37.574;2023-04-09T08:49:02;99846.41;;;22.52;31.10
75447;BME280;64024;55.820;37.574;2023-04-09T08:51:28;99839.63;;;22.50;31.00
75447;BME280;64024;55.820;37.574;2023-04-09T08:54:00;99843.13;;;22.50;30.98
75447;BME280;64024;55.820;37.574;2023-04-09T08:56:25;99843.94;;;22.51;31.09
75447;BME280;64024;55.820;37.574;2023-04-09T08:58:52;99835.81;;;22.51;30.73
75447;BME280;64024;55.820;37.574;2023-04-09T09:01:26;99838.53;;;22.51;30.64
75447;BME280;64024;55.820;37.574;2023-04-09T09:03:59;99846.66;;;22.51;30.76
75447;BME280;64024;55.820;37.574;2023-04-09T09:06:29;99840.69;;;22.49;30.59
75447;BME280;64024;55.820;37.574;2023-04-09T09:11:36;99826.88;;;22.50;30.78
75447;BME280;64024;55.820;37.574;2023-04-09T09:14:05;99839.63;;;22.50;31.10
75447;BME280;64024;55.820;37.574;2023-04-09T09:16:33;99842.31;;;22.50;30.80
75447;BME280;64024;55.820;37.574;2023-04-09T09:19:03;99837.72;;;22.50;30.77
75447;BME280;64024;55.820;37.574;2023-04-09T09:21:29;99833.38;;;22.49;30.56
75447;BME280;64024;55.820;37.574;2023-04-09T09:23:55;99824.44;;;22.49;30.58
75447;BME280;64024;55.820;37.574;2023-04-09T09:26:23;99824.72;;;22.47;30.36
75447;BME280;64024;55.820;37.574;2023-04-09T09:28:50;99829.31;;;22.47;30.45
75447;BME280;64024;55.820;37.574;2023-04-09T09:31:18;99827.41;;;22.47;30.17
75447;BME280;64024;55.820;37.574;2023-04-09T09:33:45;99823.91;;;22.47;30.20
75447;BME280;64024;55.820;37.574;2023-04-09T09:36:11;99823.91;;;22.57;30.42
75447;BME280;64024;55.820;37.574;2023-04-09T09:38:56;99823.63;;;22.53;30.04
75447;BME280;64024;55.820;37.574;2023-04-09T09:41:23;99827.16;;;22.49;30.12
75447;BME280;64024;55.820;37.574;2023-04-09T09:43:49;99821.47;;;22.45;30.21
75447;BME280;64024;55.820;37.574;2023-04-09T09:46:15;99823.38;;;22.45;29.91
75447;BME280;64024;55.820;37.574;2023-04-09T09:48:43;99812.78;;;22.43;30.33
75447;BME280;64024;55.820;37.574;2023-04-09T09:51:12;99818.75;;;22.45;30.10
75447;BME280;64024;55.820;37.574;2023-04-09T09:53:39;99813.88;;;22.47;30.21
75447;BME280;64024;55.820;37.574;2023-04-09T09:56:06;99815.78;;;22.47;30.13
75447;BME280;64024;55.820;37.574;2023-04-09T09:58:40;99827.97;;;22.49;30.09
75447;BME280;64024;55.820;37.574;2023-04-09T10:01:11;99816.84;;;22.51;29.98
75447;BME280;64024;55.820;37.574;2023-04-09T10:03:38;99814.94;;;22.51;30.17
75447;BME280;64024;55.820;37.574;2023-04-09T10:06:04;99808.72;;;22.61;29.79
75447;BME280;64024;55.820;37.574;2023-04-09T10:08:32;99808.72;;;22.56;30.00
75447;BME280;64024;55.820;37.574;2023-04-09T10:11:02;99807.38;;;22.53;29.79
75447;BME280;64024;55.820;37.574;2023-04-09T10:13:45;99803.06;;;22.52;30.08
75447;BME280;64024;55.820;37.574;2023-04-09T10:16:14;99816.31;;;22.54;29.89
75447;BME280;64024;55.820;37.574;2023-04-09T10:18:41;99801.16;;;22.53;30.01
75447;BME280;64024;55.820;37.574;2023-04-09T10:22:05;99809.00;;;22.54;29.93
75447;BME280;64024;55.820;37.574;2023-04-09T10:24:06;99797.88;;;22.56;30.04
75447;BME280;64024;55.820;37.574;2023-04-09T10:26:33;99797.06;;;22.66;30.10
75447;BME280;64024;55.820;37.574;2023-04-09T10:29:04;99806.03;;;22.61;30.27
75447;BME280;64024;55.820;37.574;2023-04-09T10:32:04;99805.22;;;22.61;30.11
75447;BME280;64024;55.820;37.574;2023-04-09T10:34:36;99810.88;;;22.59;29.92
75447;BME280;64024;55.820;37.574;2023-04-09T10:37:02;99806.84;;;22.56;29.96
75447;BME280;64024;55.820;37.574;2023-04-09T10:39:32;99805.47;;;22.54;29.97
75447;BME280;64024;55.820;37.574;2023-04-09T10:42:07;99803.56;;;22.54;29.77
75447;BME280;64024;55.820;37.574;2023-04-09T10:44:33;99812.25;;;22.51;29.87
75447;BME280;64024;55.820;37.574;2023-04-09T10:47:02;99809.00;;;22.49;29.82
75447;BME280;64024;55.820;37.574;2023-04-09T10:49:37;99798.19;;;22.49;29.84
75447;BME280;64024;55.820;37.574;2023-04-09T10:52:10;99800.88;;;22.49;29.87
75447;BME280;64024;55.820;37.574;2023-04-09T10:54:45;99804.41;;;22.50;30.16
75447;BME280;64024;55.820;37.574;2023-04-09T10:57:13;99805.50;;;22.49;30.02
75447;BME280;64024;55.820;37.574;2023-04-09T10:59:48;99801.16;;;22.48;30.06
75447;BME280;64024;55.820;37.574;2023-04-09T11:07:39;99799.28;;;22.48;29.68
75447;BME280;64024;55.820;37.574;2023-04-09T11:10:08;99796.00;;;22.46;29.75
75447;BME280;64024;55.820;37.574;2023-04-09T11:12:34;99796.28;;;22.45;29.99
75447;BME280;64024;55.820;37.574;2023-04-09T11:15:00;99796.28;;;22.45;29.89
75447;BME280;64024;55.820;37.574;2023-04-09T11:17:26;99794.38;;;22.45;30.17
75447;BME280;64024;55.820;37.574;2023-04-09T11:19:52;99803.03;;;22.47;30.13
75447;BME280;64024;55.820;37.574;2023-04-09T11:22:19;99800.88;;;22.49;30.21
75447;BME280;64024;55.820;37.574;2023-04-09T11:24:45;99797.63;;;22.52;30.18
75447;BME280;64024;55.820;37.574;2023-04-09T11:27:11;99797.34;;;22.54;29.97
75447;BME280;64024;55.820;37.574;2023-04-09T11:29:37;99796.25;;;22.55;29.80
75447;BME280;64024;55.820;37.574;2023-04-09T11:32:03;99798.16;;;22.54;29.76
75447;BME280;64024;55.820;37.574;2023-04-09T11:34:30;99797.88;;;22.56;29.65
75447;BME280;64024;55.820;37.574;2023-04-09T11:36:56;99797.88;;;22.56;29.72
75447;BME280;64024;55.820;37.574;2023-04-09T11:39:24;99793.28;;;22.56;29.48
75447;BME280;64024;55.820;37.574;2023-04-09T11:41:50;99787.88;;;22.56;30.05
75447;BME280;64024;55.820;37.574;2023-04-09T11:44:16;99780.56;;;22.57;29.94
75447;BME280;64024;55.820;37.574;2023-04-09T11:46:42;99788.41;;;22.58;29.92
75447;BME280;64024;55.820;37.574;2023-04-09T11:49:08;99782.19;;;22.58;29.87
75447;BME280;64024;55.820;37.574;2023-04-09T11:51:35;99781.88;;;22.59;29.57
75447;BME280;64024;55.820;37.574;2023-04-09T11:54:01;99779.19;;;22.59;29.78
75447;BME280;64024;55.820;37.574;2023-04-09T11:56:28;99773.25;;;22.57;29.43
75447;BME280;64024;55.820;37.574;2023-04-09T11:58:55;99774.34;;;22.56;29.49
75447;BME280;64024;55.820;37.574;2023-04-09T12:01:22;99769.97;;;22.55;29.47
75447;BME280;64024;55.820;37.574;2023-04-09T12:03:54;99771.88;;;22.55;29.32
75447;BME280;64024;55.820;37.574;2023-04-09T12:06:21;99778.91;;;22.56;29.51
75447;BME280;64024;55.820;37.574;2023-04-09T12:08:53;99765.66;;;22.54;29.42
75447;BME280;64024;55.820;37.574;2023-04-09T12:11:26;99771.63;;;22.56;29.41
75447;BME280;64024;55.820;37.574;2023-04-09T12:14:05;99763.50;;;22.56;29.33
75447;BME280;64024;55.820;37.574;2023-04-09T12:16:34;99774.34;;;22.56;29.41
75447;BME280;64024;55.820;37.574;2023-04-09T12:19:07;99772.69;;;22.55;29.57
75447;BME280;64024;55.820;37.574;2023-04-09T12:21:53;99771.63;;;22.56;29.19
75447;BME280;64024;55.820;37.574;2023-04-09T12:24:22;99759.13;;;22.55;29.47
75447;BME280;64024;55.820;37.574;2023-04-09T12:26:48;99759.94;;;22.56;29.73
75447;BME280;64024;55.820;37.574;2023-04-09T12:29:16;99755.09;;;22.58;29.94
75447;BME280;64024;55.820;37.574;2023-04-09T12:31:42;99752.59;;;22.72;30.06
75447;BME280;64024;55.820;37.574;2023-04-09T12:34:08;99746.38;;;22.71;29.99
75447;BME280;64024;55.820;37.574;2023-04-09T12:36:34;99755.31;;;22.72;30.32
75447;BME280;64024;55.820;37.574;2023-04-09T12:39:00;99755.56;;;22.75;30.66
75447;BME280;64024;55.820;37.574;2023-04-09T12:41:25;99758.56;;;22.79;31.09
75447;BME280;64024;55.820;37.574;2023-04-09T12:43:51;99752.59;;;22.82;31.00
75447;BME280;64024;55.820;37.574;2023-04-09T12:46:18;99757.47;;;22.85;31.04
75447;BME280;64024;55.820;37.574;2023-04-09T12:48:44;99756.88;;;22.88;31.40
75447;BME280;64024;55.820;37.574;2023-04-09T12:51:11;99757.47;;;22.90;31.70
75447;BME280;64024;55.820;37.574;2023-04-09T12:53:37;99755.03;;;22.94;31.73
75447;BME280;64024;55.820;37.574;2023-04-09T12:56:03;99753.38;;;22.98;31.93
75447;BME280;64024;55.820;37.574;2023-04-09T12:58:29;99751.19;;;23.00;31.84
75447;BME280;64024;55.820;37.574;2023-04-09T13:00:55;99747.13;;;23.02;32.12
75447;BME280;64024;55.820;37.574;2023-04-09T13:03:22;99751.97;;;23.05;31.95
75447;BME280;64024;55.820;37.574;2023-04-09T13:05:48;99744.38;;;23.07;32.11
75447;BME280;64024;55.820;37.574;2023-04-09T13:08:14;99745.44;;;23.12;32.15
75447;BME280;64024;55.820;37.574;2023-04-09T13:10:40;99747.63;;;23.15;32.64